sensor_id;sensor_type;location;lat;lon;timestamp;pressure;altitude;pressure_sealevel;temperature;humidity
71956;BME280;59829;50.562;6.258;2023-02-15T13:47:55;96465.94;;;12.32;60.21
71956;BME280;59829;50.562;6.258;2023-02-15T13:59:04;96463.00;;;12.37;60.42
71956;BME280;59829;50.562;6.258;2023-02-15T14:19:37;96464.97;;;12.45;61.23
71956;BME280;59829;50.562;6.258;2023-02-15T14:29:47;96469.53;;;12.41;61.68
71956;BME280;59829;50.562;6.258;2023-02-15T14:50:59;96470.09;;;12.45;61.46
71956;BME280;59829;50.562;6.258;2023-02-15T15:01:10;96467.78;;;12.42;61.74
71956;BME280;59829;50.562;6.258;2023-02-15T15:31:51;96461.00;;;12.29;61.84
71956;BME280;59829;50.562;6.258;2023-02-15T15:52:00;96463.56;;;12.07;62.74
71956;BME280;59829;50.562;6.258;2023-02-15T16:02:10;96453.25;;;11.96;63.07
71956;BME280;59829;50.562;6.258;2023-02-15T16:12:15;96462.03;;;11.82;62.96
71956;BME280;59829;50.562;6.258;2023-02-15T16:22:24;96473.25;;;11.68;62.96
71956;BME280;59829;50.562;6.258;2023-02-15T16:32:26;96483.94;;;11.51;63.82
71956;BME280;59829;50.562;6.258;2023-02-15T16:42:27;96492.41;;;11.40;64.02
71956;BME280;59829;50.562;6.258;2023-02-15T16:52:28;96493.13;;;11.18;64.10
71956;BME280;59829;50.562;6.258;2023-02-15T17:02:31;96497.47;;;11.05;64.48
71956;BME280;59829;50.562;6.258;2023-02-15T17:22:46;96511.72;;;10.73;64.90
71956;BME280;59829;50.562;6.258;2023-02-15T17:32:55;96523.81;;;10.58;64.99
71956;BME280;59829;50.562;6.258;2023-02-15T17:42:56;96508.72;;;10.42;64.99
71956;BME280;59829;50.562;6.258;2023-02-15T17:52:57;96513.00;;;10.29;65.13
71956;BME280;59829;50.562;6.258;2023-02-15T18:02:58;96522.41;;;10.16;65.46
71956;BME280;59829;50.562;6.258;2023-02-15T18:13:17;96523.41;;;10.01;65.89
71956;BME280;59829;50.562;6.258;2023-02-15T18:23:17;96527.06;;;9.84;66.00
71956;BME280;59829;50.562;6.258;2023-02-15T18:33:35;96532.16;;;9.71;66.41
71956;BME280;59829;50.562;6.258;2023-02-15T18:43:37;96550.31;;;9.54;66.98
71956;BME280;59829;50.562;6.258;2023-02-15T18:53:37;96542.00;;;9.38;67.23
71956;BME280;59829;50.562;6.258;2023-02-15T19:03:37;96557.41;;;9.23;67.42
71956;BME280;59829;50.562;6.258;2023-02-15T19:13:38;96535.44;;;9.06;67.99
71956;BME280;59829;50.562;6.258;2023-02-15T19:23:38;96543.94;;;8.93;68.12
71956;BME280;59829;50.562;6.258;2023-02-15T19:33:38;96548.34;;;8.76;68.96
71956;BME280;59829;50.562;6.258;2023-02-15T19:43:39;96542.91;;;8.68;68.90
71956;BME280;59829;50.562;6.258;2023-02-15T19:53:40;96527.19;;;8.60;69.15
71956;BME280;59829;50.562;6.258;2023-02-15T20:03:40;96527.78;;;8.51;69.40
71956;BME280;59829;50.562;6.258;2023-02-15T20:13:40;96531.78;;;8.41;69.46
71956;BME280;59829;50.562;6.258;2023-02-15T20:23:41;96530.63;;;8.31;69.52
71956;BME280;59829;50.562;6.258;2023-02-15T20:33:41;96522.44;;;8.26;69.84
71956;BME280;59829;50.562;6.258;2023-02-15T20:43:42;96520.69;;;8.12;69.83
71956;BME280;59829;50.562;6.258;2023-02-15T20:53:42;96520.59;;;7.99;70.17
71956;BME280;59829;50.562;6.258;2023-02-15T21:03:42;96527.84;;;7.91;70.49
71956;BME280;59829;50.562;6.258;2023-02-15T21:13:43;96523.28;;;7.82;70.72
71956;BME280;59829;50.562;6.258;2023-02-15T21:23:44;96541.09;;;7.68;71.12
71956;BME280;59829;50.562;6.258;2023-02-15T21:33:44;96542.56;;;7.72;71.23
71956;BME280;59829;50.562;6.258;2023-02-15T21:43:44;96544.22;;;7.73;71.52
71956;BME280;59829;50.562;6.258;2023-02-15T21:54:03;96535.00;;;7.70;71.44
71956;BME280;59829;50.562;6.258;2023-02-15T22:04:11;96528.53;;;7.65;71.90
71956;BME280;59829;50.562;6.258;2023-02-15T22:14:38;96520.31;;;7.60;71.69
71956;BME280;59829;50.562;6.258;2023-02-15T22:24:39;96533.41;;;7.53;71.84
71956;BME280;59829;50.562;6.258;2023-02-15T22:34:39;96523.72;;;7.44;72.24
71956;BME280;59829;50.562;6.258;2023-02-15T22:44:40;96530.06;;;7.37;72.44
71956;BME280;59829;50.562;6.258;2023-02-15T22:54:40;96530.53;;;7.14;72.35
71956;BME280;59829;50.562;6.258;2023-02-15T23:04:41;96536.91;;;7.21;72.79
71956;BME280;59829;50.562;6.258;2023-02-15T23:14:41;96531.47;;;7.27;73.21
71956;BME280;59829;50.562;6.258;2023-02-15T23:24:48;96528.00;;;7.28;73.05
71956;BME280;59829;50.562;6.258;2023-02-15T23:34:50;96540.84;;;7.26;73.28
71956;BME280;59829;50.562;6.258;2023-02-15T23:44:51;96537.09;;;7.18;73.28
71956;BME280;59829;50.562;6.258;2023-02-15T23:54:51;96529.03;;;7.10;73.56
